createdAt,value
2022-08-10T00:01:51.562Z,21.70
2022-08-10T00:04:21.474Z,21.80
2022-08-10T00:06:54.132Z,21.80
2022-08-10T00:09:22.158Z,21.90
2022-08-10T00:11:49.501Z,21.90
2022-08-10T00:14:17.213Z,21.90
2022-08-10T00:16:44.614Z,21.90
2022-08-10T00:19:12.065Z,22.00
2022-08-10T00:21:39.833Z,22.00
2022-08-10T00:24:07.425Z,22.00
2022-08-10T00:27:52.145Z,22.00
2022-08-10T00:29:22.019Z,22.00
2022-08-10T00:31:57.794Z,22.00
2022-08-10T00:34:27.425Z,22.00
2022-08-10T00:36:54.946Z,22.00
2022-08-10T00:39:22.509Z,22.00
2022-08-10T00:42:02.351Z,22.10
2022-08-10T00:44:37.288Z,22.00
2022-08-10T00:47:05.089Z,22.00
2022-08-10T00:49:32.428Z,22.10
2022-08-10T00:51:59.894Z,22.00
2022-08-10T00:54:27.267Z,22.10
2022-08-10T00:57:16.185Z,22.00
2022-08-10T00:59:59.276Z,22.00
2022-08-10T01:02:29.799Z,22.00
2022-08-10T01:05:02.105Z,22.00
2022-08-10T01:08:11.554Z,22.00
2022-08-10T01:12:34.222Z,22.00
2022-08-10T01:14:04.664Z,22.00
2022-08-10T01:16:47.769Z,22.00
2022-08-10T01:19:59.876Z,22.00
2022-08-10T01:23:01.459Z,22.00
2022-08-10T01:26:11.966Z,22.00
2022-08-10T01:29:13.224Z,22.00
2022-08-10T01:31:48.158Z,22.00
2022-08-10T01:34:25.572Z,22.00
2022-08-10T01:36:59.724Z,22.00
2022-08-10T01:39:33.181Z,22.00
2022-08-10T01:42:02.764Z,22.00
2022-08-10T01:44:35.243Z,22.00
2022-08-10T01:47:27.710Z,22.00
2022-08-10T01:50:03.310Z,22.00
2022-08-10T01:52:33.137Z,22.00
2022-08-10T01:55:00.537Z,22.10
2022-08-10T01:57:31.664Z,22.10
2022-08-10T02:00:02.544Z,22.10
2022-08-10T02:02:33.875Z,22.00
2022-08-10T02:05:03.346Z,22.00
2022-08-10T02:07:31.339Z,22.00
2022-08-10T02:10:10.897Z,22.00
2022-08-10T02:12:39.555Z,22.00
2022-08-10T02:15:12.798Z,22.00
2022-08-10T02:17:57.821Z,22.00
2022-08-10T02:20:32.254Z,22.00
2022-08-10T02:23:03.036Z,22.00
2022-08-10T02:25:41.674Z,22.00
2022-08-10T02:28:29.692Z,22.00
2022-08-10T02:31:06.546Z,22.00
2022-08-10T02:33:37.318Z,22.00
2022-08-10T02:36:08.301Z,22.00
2022-08-10T02:38:59.092Z,22.00
2022-08-10T02:45:14.169Z,22.00
2022-08-10T02:45:21.827Z,22.00
2022-08-10T02:47:50.723Z,22.00
2022-08-10T02:50:41.208Z,22.00
2022-08-10T02:53:54.503Z,22.00
2022-08-10T02:56:33.953Z,22.00
2022-08-10T02:59:11.793Z,22.00
2022-08-10T03:01:44.025Z,22.10
2022-08-10T03:04:55.184Z,22.10
2022-08-10T03:07:13.241Z,22.10
2022-08-10T03:09:41.996Z,22.00
2022-08-10T03:12:36.289Z,22.00
2022-08-10T03:15:01.635Z,22.00
2022-08-10T03:17:30.885Z,22.00
2022-08-10T03:20:04.625Z,22.00
2022-08-10T03:22:50.968Z,22.00
2022-08-10T03:25:22.214Z,22.00
2022-08-10T03:27:50.683Z,22.00
2022-08-10T03:30:31.580Z,22.00
2022-08-10T03:33:04.257Z,22.00
2022-08-10T03:35:31.963Z,22.00
2022-08-10T03:38:00.710Z,22.00
2022-08-10T03:40:45.619Z,22.00
2022-08-10T03:43:20.550Z,22.00
2022-08-10T03:45:54.945Z,22.00
2022-08-10T03:48:32.173Z,22.00
2022-08-10T03:51:14.247Z,22.00
2022-08-10T03:54:05.186Z,22.00
2022-08-10T03:56:32.469Z,22.00
2022-08-10T03:59:00.992Z,22.00
2022-08-10T04:02:43.492Z,22.00
2022-08-10T04:04:22.859Z,22.00
2022-08-10T04:06:54.746Z,22.00
2022-08-10T04:09:54.208Z,22.00
2022-08-10T04:12:18.398Z,22.00
2022-08-10T04:14:50.090Z,22.00
2022-08-10T04:18:02.831Z,22.00
2022-08-10T04:20:16.354Z,22.00
2022-08-10T04:22:45.798Z,22.00
2022-08-10T04:25:14.837Z,22.00
2022-08-10T04:27:43.255Z,22.00
2022-08-10T04:30:11.047Z,22.00
2022-08-10T04:32:39.386Z,22.00
2022-08-10T04:35:10.939Z,21.90
2022-08-10T04:37:43.367Z,21.90
2022-08-10T04:40:25.377Z,22.00
2022-08-10T04:43:01.436Z,21.90
2022-08-10T04:45:47.663Z,21.90
2022-08-10T04:48:40.724Z,21.90
2022-08-10T04:51:10.694Z,21.90
2022-08-10T04:54:05.857Z,21.90
2022-08-10T04:56:31.725Z,21.90
2022-08-10T04:59:00.606Z,21.90
2022-08-10T05:02:27.870Z,21.90
2022-08-10T05:04:36.215Z,21.90
2022-08-10T05:07:07.270Z,21.90
2022-08-10T05:10:03.787Z,21.90
2022-08-10T05:12:22.033Z,21.90
2022-08-10T05:14:49.477Z,22.00
2022-08-10T05:17:16.764Z,21.90
2022-08-10T05:20:03.305Z,21.90
2022-08-10T05:22:31.431Z,21.90
2022-08-10T05:24:58.711Z,21.90
2022-08-10T05:27:26.030Z,21.90
2022-08-10T05:30:01.982Z,21.90
2022-08-10T05:32:32.350Z,21.90
2022-08-10T05:34:59.938Z,21.90
2022-08-10T05:38:13.231Z,22.00
2022-08-10T05:40:17.073Z,22.00
2022-08-10T05:42:44.460Z,22.00
2022-08-10T05:45:20.858Z,22.00
2022-08-10T05:48:55.715Z,22.00
2022-08-10T05:50:36.242Z,22.00
2022-08-10T05:53:59.260Z,22.00
2022-08-10T05:55:51.288Z,22.00
2022-08-10T05:58:18.878Z,21.90
2022-08-10T06:00:54.317Z,22.00
2022-08-10T06:03:33.962Z,22.00
2022-08-10T06:06:02.967Z,22.00
2022-08-10T06:08:33.574Z,22.00
2022-08-10T06:12:27.062Z,22.00
2022-08-10T06:14:13.844Z,22.00
2022-08-10T06:16:45.237Z,22.00
2022-08-10T06:19:15.060Z,22.00
2022-08-10T06:21:53.615Z,22.00
2022-08-10T06:24:31.106Z,22.00
2022-08-10T06:26:59.812Z,22.00
2022-08-10T06:29:29.658Z,22.00
2022-08-10T06:31:58.705Z,22.00
2022-08-10T06:34:32.787Z,22.00
2022-08-10T06:37:02.987Z,22.00
2022-08-10T06:39:34.219Z,22.00
2022-08-10T06:42:15.526Z,22.00
2022-08-10T06:45:26.782Z,22.10
2022-08-10T06:48:28.193Z,22.00
2022-08-10T06:51:01.737Z,22.00
2022-08-10T06:53:53.401Z,22.00
2022-08-10T06:56:37.586Z,22.00
2022-08-10T06:59:22.083Z,22.10
2022-08-10T07:02:03.683Z,22.00
2022-08-10T07:04:54.439Z,22.00
2022-08-10T07:07:27.923Z,22.10
2022-08-10T07:09:57.255Z,22.00
2022-08-10T07:12:26.729Z,22.10
2022-08-10T07:14:55.011Z,22.10
2022-08-10T07:17:24.871Z,22.10
2022-08-10T07:19:58.426Z,22.00
2022-08-10T07:23:01.618Z,22.10
2022-08-10T07:25:21.594Z,22.10
2022-08-10T07:27:59.932Z,22.10
2022-08-10T07:30:37.356Z,22.10
2022-08-10T07:33:06.284Z,22.10
2022-08-10T07:35:43.004Z,22.10
2022-08-10T07:38:18.665Z,22.10
2022-08-10T07:40:47.379Z,22.10
2022-08-10T07:43:16.904Z,22.10
2022-08-10T07:45:46.432Z,22.10
2022-08-10T07:48:27.293Z,22.10
2022-08-10T07:50:59.483Z,22.10
2022-08-10T07:53:31.682Z,22.10
2022-08-10T07:56:04.957Z,22.10
2022-08-10T07:58:55.007Z,22.10
2022-08-10T08:01:29.439Z,22.10
2022-08-10T08:04:05.388Z,22.10
2022-08-10T08:06:41.652Z,22.10
2022-08-10T08:09:10.231Z,22.00
2022-08-10T08:11:42.620Z,21.80
2022-08-10T08:14:11.737Z,21.80
2022-08-10T08:16:44.055Z,21.80
2022-08-10T08:19:36.087Z,21.70
2022-08-10T08:24:09.319Z,21.70
2022-08-10T08:24:52.202Z,21.70
2022-08-10T08:27:21.321Z,21.70
2022-08-10T08:29:50.670Z,21.80
2022-08-10T08:32:31.769Z,21.90
2022-08-10T08:35:03.578Z,22.00
2022-08-10T08:38:32.850Z,22.00
2022-08-10T08:40:27.241Z,22.10
2022-08-10T08:43:31.407Z,22.10
2022-08-10T08:46:39.011Z,22.10
2022-08-10T08:50:08.019Z,22.20
2022-08-10T08:52:38.238Z,22.20
2022-08-10T08:56:04.767Z,22.20
2022-08-10T08:58:50.785Z,22.20
2022-08-10T09:01:43.764Z,22.20
2022-08-10T09:04:32.630Z,22.20
2022-08-10T09:07:59.212Z,22.20
2022-08-10T09:10:17.844Z,22.20
2022-08-10T09:12:52.056Z,22.20
2022-08-10T09:15:57.426Z,22.20
2022-08-10T09:18:48.115Z,22.20
2022-08-10T09:21:33.390Z,22.20
2022-08-10T09:24:15.475Z,22.20
2022-08-10T09:26:52.777Z,22.20
2022-08-10T09:29:27.002Z,22.20
2022-08-10T09:36:13.944Z,22.20
2022-08-10T09:36:26.783Z,22.20
2022-08-10T09:38:36.323Z,22.20
2022-08-10T09:41:34.574Z,22.20
2022-08-10T09:44:35.220Z,22.20
2022-08-10T09:48:00.741Z,22.20
2022-08-10T09:51:28.490Z,22.20
2022-08-10T09:54:04.561Z,22.20
2022-08-10T09:56:31.911Z,22.20
2022-08-10T09:59:59.482Z,22.20
2022-08-10T10:02:29.145Z,22.20
2022-08-10T10:05:25.312Z,22.20
2022-08-10T10:08:17.367Z,22.20
2022-08-10T10:11:13.078Z,22.20
2022-08-10T10:14:16.360Z,22.20
2022-08-10T10:17:03.405Z,22.20
2022-08-10T10:19:55.388Z,22.20
2022-08-10T10:22:36.951Z,22.20
2022-08-10T10:25:21.845Z,22.30
2022-08-10T10:28:44.347Z,22.20
2022-08-10T10:31:27.032Z,22.30
2022-08-10T10:34:00.601Z,22.30
2022-08-10T10:36:29.644Z,22.30
2022-08-10T10:38:59.567Z,22.30
2022-08-10T10:42:03.558Z,22.30
2022-08-10T10:44:52.824Z,22.30
2022-08-10T10:47:49.243Z,22.30
2022-08-10T10:50:34.798Z,22.30
2022-08-10T10:53:19.224Z,22.30
2022-08-10T10:56:14.967Z,22.30
2022-08-10T10:59:54.475Z,22.30
2022-08-10T11:02:22.099Z,22.30
2022-08-10T11:05:01.343Z,22.30
2022-08-10T11:07:53.383Z,22.30
2022-08-10T11:10:32.596Z,22.30
2022-08-10T11:14:23.380Z,22.30
2022-08-10T11:16:52.902Z,22.30
2022-08-10T11:20:01.708Z,22.30
2022-08-10T11:22:55.495Z,22.30
2022-08-10T11:25:30.397Z,22.30
2022-08-10T11:28:07.254Z,22.30
2022-08-10T11:30:45.232Z,22.30
2022-08-10T11:34:03.750Z,22.30
2022-08-10T11:36:31.171Z,22.30
2022-08-10T11:39:14.354Z,22.30
2022-08-10T11:42:08.839Z,22.30
2022-08-10T11:44:57.262Z,22.30
2022-08-10T11:47:37.691Z,22.30
2022-08-10T11:50:16.975Z,22.30
2022-08-10T11:53:05.789Z,22.30
2022-08-10T11:55:34.659Z,22.30
2022-08-10T11:58:27.994Z,22.30
2022-08-10T12:00:59.355Z,22.30
2022-08-10T12:03:31.361Z,22.30
2022-08-10T12:06:04.022Z,22.30
2022-08-10T12:10:02.677Z,22.30
2022-08-10T12:11:25.917Z,22.40
2022-08-10T12:14:22.796Z,22.40
2022-08-10T12:16:59.388Z,22.30
2022-08-10T12:20:01.273Z,22.30
2022-08-10T12:23:06.151Z,22.30
2022-08-10T12:25:58.707Z,22.30
2022-08-10T12:28:50.724Z,22.30
2022-08-10T12:31:57.242Z,22.40
2022-08-10T12:34:36.980Z,22.30
2022-08-10T12:37:26.765Z,22.30
2022-08-10T12:40:33.831Z,22.40
2022-08-10T12:44:03.703Z,22.50
2022-08-10T12:46:15.891Z,22.50
2022-08-10T12:49:13.790Z,22.50
2022-08-10T12:51:49.706Z,22.40
2022-08-10T12:54:31.709Z,22.50
2022-08-10T12:57:10.846Z,22.50
2022-08-10T12:59:44.927Z,22.50
2022-08-10T13:02:19.641Z,22.50
2022-08-10T13:04:51.266Z,22.50
2022-08-10T13:08:04.030Z,22.50
2022-08-10T13:10:21.110Z,22.50
2022-08-10T13:12:51.658Z,22.60
2022-08-10T13:15:49.520Z,22.70
2022-08-10T13:18:19.671Z,22.80
2022-08-10T13:20:53.414Z,22.80
2022-08-10T13:23:31.728Z,22.90
2022-08-10T13:26:02.748Z,22.80
2022-08-10T13:29:02.068Z,22.80
2022-08-10T13:32:04.361Z,22.80
2022-08-10T13:34:42.557Z,22.80
2022-08-10T13:37:15.701Z,22.80
2022-08-10T13:39:57.858Z,22.80
2022-08-10T13:42:37.102Z,22.80
2022-08-10T13:45:31.135Z,22.80
2022-08-10T13:48:17.275Z,22.70
2022-08-10T13:50:47.160Z,22.70
2022-08-10T13:53:17.206Z,22.70
2022-08-10T13:55:56.401Z,22.70
2022-08-10T13:58:37.105Z,22.60
2022-08-10T14:01:14.090Z,22.60
2022-08-10T14:03:44.146Z,22.60
2022-08-10T14:06:14.315Z,22.60
2022-08-10T14:08:56.782Z,22.60
2022-08-10T14:11:27.028Z,22.60
2022-08-10T14:14:04.317Z,22.60
2022-08-10T14:16:33.577Z,22.60
2022-08-10T14:19:05.459Z,22.60
2022-08-10T14:21:40.340Z,22.60
2022-08-10T14:24:20.156Z,22.60
2022-08-10T14:26:48.782Z,22.70
2022-08-10T14:29:20.218Z,22.60
2022-08-10T14:32:01.777Z,22.60
2022-08-10T14:34:59.341Z,22.60
2022-08-10T14:37:38.709Z,22.60
2022-08-10T14:40:15.811Z,22.50
2022-08-10T14:43:06.549Z,22.50
2022-08-10T14:45:39.601Z,22.50
2022-08-10T14:48:33.235Z,22.50
2022-08-10T14:51:02.555Z,22.40
2022-08-10T14:53:34.597Z,22.40
2022-08-10T14:56:09.202Z,22.40
2022-08-10T14:58:58.838Z,22.40
2022-08-10T15:02:37.753Z,22.30
2022-08-10T15:04:28.356Z,22.30
2022-08-10T15:07:01.250Z,22.30
2022-08-10T15:10:00.897Z,22.30
2022-08-10T15:12:27.280Z,22.30
2022-08-10T15:14:58.521Z,22.20
2022-08-10T15:17:37.728Z,22.20
2022-08-10T15:20:21.689Z,22.30
2022-08-10T15:22:53.131Z,22.30
2022-08-10T15:25:25.126Z,22.20
2022-08-10T15:28:05.770Z,22.20
2022-08-10T15:30:46.868Z,22.20
2022-08-10T15:33:59.515Z,22.20
2022-08-10T15:37:02.142Z,22.20
2022-08-10T15:40:22.478Z,22.20
2022-08-10T15:42:55.174Z,22.20
2022-08-10T15:45:26.186Z,22.10
2022-08-10T15:48:03.001Z,22.10
2022-08-10T15:50:43.800Z,22.10
2022-08-10T15:53:15.954Z,22.10
2022-08-10T15:55:59.878Z,22.20
2022-08-10T15:58:48.733Z,22.10
2022-08-10T16:02:15.118Z,22.10
2022-08-10T16:04:31.656Z,22.10
2022-08-10T16:07:12.487Z,22.10
2022-08-10T16:10:25.152Z,22.10
2022-08-10T16:12:59.101Z,22.10
2022-08-10T16:15:30.298Z,22.10
2022-08-10T16:18:04.689Z,22.10
2022-08-10T16:20:55.370Z,22.10
2022-08-10T16:23:43.661Z,22.10
2022-08-10T16:26:26.795Z,22.10
2022-08-10T16:29:07.801Z,22.10
2022-08-10T16:31:37.292Z,22.10
2022-08-10T16:34:11.158Z,22.10
2022-08-10T16:36:42.538Z,22.10
2022-08-10T16:39:15.847Z,22.10
2022-08-10T16:42:05.616Z,22.10
2022-08-10T16:44:56.644Z,22.00
2022-08-10T16:47:37.105Z,22.00
2022-08-10T16:50:09.205Z,22.00
2022-08-10T16:52:37.472Z,22.10
2022-08-10T16:55:23.534Z,22.10
2022-08-10T16:57:54.313Z,22.10
2022-08-10T17:00:23.647Z,22.10
2022-08-10T17:02:55.066Z,22.10
2022-08-10T17:06:07.433Z,22.00
2022-08-10T17:08:16.019Z,22.00
2022-08-10T17:10:43.639Z,22.00
2022-08-10T17:13:14.080Z,22.00
2022-08-10T17:15:49.012Z,22.00
2022-08-10T17:18:30.554Z,22.00
2022-08-10T17:21:07.753Z,22.00
2022-08-10T17:23:40.051Z,22.00
2022-08-10T17:26:12.103Z,22.00
2022-08-10T17:28:55.806Z,22.00
2022-08-10T17:31:53.632Z,22.00
2022-08-10T17:34:28.465Z,22.00
2022-08-10T17:37:03.437Z,22.00
2022-08-10T17:39:55.039Z,22.00
2022-08-10T17:42:24.362Z,22.00
2022-08-10T17:44:54.357Z,22.00
2022-08-10T17:47:27.121Z,22.00
2022-08-10T17:50:00.211Z,22.00
2022-08-10T17:52:32.543Z,22.00
2022-08-10T17:55:08.345Z,22.00
2022-08-10T17:57:40.906Z,22.00
2022-08-10T18:00:14.555Z,22.00
2022-08-10T18:02:48.072Z,22.00
2022-08-10T18:05:16.631Z,21.90
2022-08-10T18:07:47.998Z,21.90
2022-08-10T18:10:19.286Z,21.90
2022-08-10T18:12:55.984Z,21.90
2022-08-10T18:15:27.018Z,21.90
2022-08-10T18:17:59.951Z,21.90
2022-08-10T18:20:38.888Z,21.90
2022-08-10T18:23:09.226Z,22.00
2022-08-10T18:25:45.471Z,22.00
2022-08-10T18:28:19.240Z,21.90
2022-08-10T18:30:51.042Z,21.90
2022-08-10T18:33:23.617Z,22.00
2022-08-10T18:35:52.458Z,21.90
2022-08-10T18:38:21.646Z,21.90
2022-08-10T18:40:57.490Z,21.90
2022-08-10T18:44:07.616Z,21.80
2022-08-10T18:46:29.443Z,21.80
2022-08-10T18:49:31.625Z,21.70
2022-08-10T18:52:10.264Z,21.70
2022-08-10T18:54:45.637Z,21.60
2022-08-10T18:57:25.195Z,21.60
2022-08-10T19:00:07.362Z,21.60
2022-08-10T19:02:41.996Z,21.60
2022-08-10T19:05:48.593Z,21.60
2022-08-10T19:08:37.004Z,21.70
2022-08-10T19:11:43.339Z,21.80
2022-08-10T19:14:20.519Z,21.90
2022-08-10T19:17:13.743Z,22.00
2022-08-10T19:20:03.475Z,22.00
2022-08-10T19:23:08.416Z,22.00
2022-08-10T19:26:39.360Z,22.00
2022-08-10T19:29:06.027Z,22.00
2022-08-10T19:31:52.215Z,21.90
2022-08-10T19:34:43.715Z,21.90
2022-08-10T19:37:37.801Z,21.90
2022-08-10T19:40:46.501Z,21.90
2022-08-10T19:44:00.354Z,21.90
2022-08-10T19:46:59.874Z,21.80
2022-08-10T19:49:40.085Z,21.90
2022-08-10T19:52:48.184Z,21.90
2022-08-10T19:55:37.351Z,21.90
2022-08-10T19:58:17.684Z,21.80
2022-08-10T20:00:51.169Z,21.80
2022-08-10T20:03:54.405Z,21.80
2022-08-10T20:06:49.930Z,21.80
2022-08-10T20:09:52.126Z,21.80
2022-08-10T20:13:00.650Z,21.80
2022-08-10T20:15:42.576Z,21.80
2022-08-10T20:18:25.605Z,21.80
2022-08-10T20:21:23.807Z,21.80
2022-08-10T20:24:04.091Z,21.80
2022-08-10T20:26:46.810Z,21.80
2022-08-10T20:29:58.882Z,21.80
2022-08-10T20:32:25.895Z,21.80
2022-08-10T20:35:31.151Z,21.80
2022-08-10T20:38:31.309Z,21.80
2022-08-10T20:41:22.133Z,21.80
2022-08-10T20:44:37.529Z,21.80
2022-08-10T20:47:19.301Z,21.80
2022-08-10T20:50:08.948Z,21.80
2022-08-10T20:52:39.965Z,21.80
2022-08-10T20:55:10.263Z,21.80
2022-08-10T20:58:15.024Z,21.80
2022-08-10T21:00:51.132Z,21.70
2022-08-10T21:03:44.211Z,21.70
2022-08-10T21:06:42.093Z,21.70
2022-08-10T21:09:23.751Z,21.80
2022-08-10T21:12:18.975Z,21.70
2022-08-10T21:15:06.013Z,21.70
2022-08-10T21:18:00.433Z,21.70
2022-08-10T21:21:01.007Z,21.70
2022-08-10T21:23:31.078Z,21.70
2022-08-10T21:26:09.078Z,21.70
2022-08-10T21:29:19.549Z,21.70
2022-08-10T21:32:01.228Z,21.70
2022-08-10T21:34:54.498Z,21.70
2022-08-10T21:37:40.299Z,21.70
2022-08-10T21:44:08.227Z,21.70
2022-08-10T21:47:41.660Z,21.70
2022-08-10T21:50:30.440Z,21.60
2022-08-10T21:53:48.131Z,21.60
2022-08-10T21:57:01.169Z,21.60
2022-08-10T22:00:12.993Z,21.60
2022-08-10T22:03:00.476Z,21.60
2022-08-10T22:05:51.488Z,21.60
2022-08-10T22:08:44.679Z,21.60
2022-08-10T22:11:37.377Z,21.60
2022-08-10T22:14:26.195Z,21.60
2022-08-10T22:18:03.586Z,21.60
2022-08-10T22:20:29.353Z,21.60
2022-08-10T22:23:37.470Z,21.70
2022-08-10T22:27:01.743Z,21.70
2022-08-10T22:29:58.237Z,21.60
2022-08-10T22:31:25.015Z,21.70
2022-08-10T22:33:07.462Z,21.60
2022-08-10T22:35:59.194Z,21.60
2022-08-10T22:40:11.820Z,21.60
2022-08-10T22:42:59.127Z,21.70
2022-08-10T22:45:53.380Z,21.80
2022-08-10T22:48:39.941Z,21.90
2022-08-10T22:51:17.037Z,22.00
2022-08-10T22:54:30.135Z,22.10
2022-08-10T22:57:21.870Z,22.10
2022-08-10T22:59:50.413Z,22.10
2022-08-10T23:02:31.977Z,22.10
2022-08-10T23:05:08.138Z,22.10
2022-08-10T23:07:46.382Z,22.20
2022-08-10T23:10:17.736Z,22.20
2022-08-10T23:12:57.092Z,22.20
2022-08-10T23:15:57.023Z,22.20
2022-08-10T23:18:51.857Z,22.20
2022-08-10T23:21:20.780Z,22.20
2022-08-10T23:23:53.038Z,22.20
2022-08-10T23:26:25.329Z,22.20
2022-08-10T23:29:04.280Z,22.20
2022-08-10T23:32:01.169Z,22.20
2022-08-10T23:34:32.772Z,22.20
2022-08-10T23:37:03.141Z,22.20
2022-08-10T23:39:34.685Z,22.20
2022-08-10T23:42:10.538Z,22.20
2022-08-10T23:44:46.145Z,22.10
2022-08-10T23:47:17.658Z,22.20
2022-08-10T23:49:48.005Z,22.20
2022-08-10T23:52:58.568Z,22.10
2022-08-10T23:55:33.829Z,22.10
2022-08-10T23:58:31.610Z,22.20
